Time;durP1;ratioP1;P1;durP2;ratioP2;P2;SDS_P1;SDS_P2;PMS_P1;PMS_P2;Temp;Humidity;BMP_temperature;BMP_pressure;BME280_temperature;BME280_humidity;BME280_pressure;Samples;Min_cycle;Max_cycle;Signal;HPM_P1;HPM_P2
2022/05/23 00:01:27;;;;;;;1.75;1.65;;;23.90;45.20;;;;;;6282044;27;80751;-69
2022/05/23 00:04:27;;;;;;;3.70;1.25;;;23.90;45.90;;;;;;6285356;27;80930;-69
2022/05/23 00:07:28;;;;;;;2.78;1.13;;;23.90;45.20;;;;;;6283617;27;80239;-69
2022/05/23 00:10:28;;;;;;;1.92;1.30;;;23.90;45.30;;;;;;6286302;27;80287;-69
2022/05/23 00:13:29;;;;;;;1.48;1.17;;;23.90;45.20;;;;;;6286490;27;80883;-70
2022/05/23 00:16:29;;;;;;;1.30;1.20;;;23.90;45.20;;;;;;6272987;27;80784;-69
2022/05/23 00:19:30;;;;;;;1.75;1.20;;;23.90;45.20;;;;;;6273466;27;80988;-70
2022/05/23 00:22:32;;;;;;;1.40;1.20;;;23.90;45.30;;;;;;6285685;27;80328;-69
2022/05/23 00:25:33;;;;;;;1.55;1.10;;;23.90;45.20;;;;;;6284261;27;80538;-68
2022/05/23 00:28:34;;;;;;;2.28;1.77;;;23.90;45.20;;;;;;6284029;27;80934;-70
2022/05/23 00:31:34;;;;;;;1.63;1.20;;;23.90;45.20;;;;;;6286329;27;80703;-70
2022/05/23 00:37:55;;;;;;;1.95;1.30;;;23.90;45.20;;;;;;6283740;27;83018;-70
2022/05/23 00:43:13;;;;;;;2.40;1.35;;;23.90;45.20;;;;;;6283785;27;80861;-71
2022/05/23 00:44:16;;;;;;;1.40;1.15;;;23.90;45.30;;;;;;6285238;27;80395;-70
2022/05/23 00:47:17;;;;;;;3.95;1.50;;;23.90;45.20;;;;;;6277433;27;81104;-72
2022/05/23 00:50:17;;;;;;;2.67;1.27;;;23.90;45.30;;;;;;6283153;27;82907;-70
2022/05/23 00:53:18;;;;;;;3.65;1.35;;;23.90;45.20;;;;;;6282975;27;83248;-70
2022/05/23 00:56:18;;;;;;;2.78;1.20;;;23.90;45.40;;;;;;6283104;27;83313;-70
2022/05/23 00:59:19;;;;;;;3.17;1.40;;;23.80;45.30;;;;;;6282769;27;87818;-69
2022/05/23 01:02:19;;;;;;;2.90;1.42;;;23.90;45.40;;;;;;6284785;27;80792;-70
2022/05/23 01:05:20;;;;;;;1.90;1.30;;;23.90;45.40;;;;;;6257833;27;82031;-70
2022/05/23 01:08:21;;;;;;;1.63;1.25;;;23.90;45.30;;;;;;6283285;27;83124;-71
2022/05/23 01:11:21;;;;;;;3.05;1.58;;;23.90;45.30;;;;;;6283433;27;82845;-71
2022/05/23 01:14:22;;;;;;;2.35;1.30;;;23.90;45.30;;;;;;6284328;27;80227;-70
2022/05/23 01:17:23;;;;;;;2.47;1.52;;;23.90;45.60;;;;;;6279967;27;80482;-70
2022/05/23 01:20:23;;;;;;;1.30;1.20;;;23.80;45.40;;;;;;6282469;27;83215;-69
2022/05/23 01:23:24;;;;;;;2.55;1.42;;;23.90;46.00;;;;;;6282872;27;80787;-69
2022/05/23 01:26:44;;;;;;;1.30;1.20;;;23.80;45.30;;;;;;6258137;27;81802;-69
2022/05/23 01:29:52;;;;;;;1.58;1.40;;;23.80;45.40;;;;;;6273869;27;80441;-70
2022/05/23 01:32:53;;;;;;;2.88;1.50;;;23.80;45.40;;;;;;6271939;27;82538;-69
2022/05/23 01:35:53;;;;;;;2.10;1.10;;;23.80;45.40;;;;;;6284235;27;80657;-69
2022/05/23 01:38:54;;;;;;;1.50;1.35;;;23.80;45.40;;;;;;6283905;27;80669;-70
2022/05/23 01:41:58;;;;;;;3.67;1.65;;;23.80;45.30;;;;;;6283043;27;82355;-70
2022/05/23 01:44:58;;;;;;;1.42;1.20;;;23.80;45.30;;;;;;6282560;27;83164;-70
2022/05/23 01:47:59;;;;;;;2.72;1.63;;;23.80;45.30;;;;;;6282416;27;83488;-69
2022/05/23 01:51:00;;;;;;;1.92;1.33;;;23.80;45.40;;;;;;6283053;27;83232;-69
2022/05/23 01:54:00;;;;;;;2.03;1.58;;;23.80;45.60;;;;;;6282357;27;82192;-69
2022/05/23 01:57:03;;;;;;;3.03;1.67;;;23.80;45.90;;;;;;6274756;27;81547;-68
2022/05/23 02:03:23;;;;;;;2.65;1.50;;;23.80;46.00;;;;;;6282848;27;83411;-69
2022/05/23 02:06:28;;;;;;;4.27;1.90;;;23.80;45.90;;;;;;6282640;27;82829;-69
2022/05/23 02:09:32;;;;;;;2.00;1.25;;;23.80;45.90;;;;;;6282298;27;82050;-68
2022/05/23 02:12:46;;;;;;;2.38;1.40;;;23.80;45.90;;;;;;6271332;27;82301;-68
2022/05/23 02:15:51;;;;;;;3.53;1.33;;;23.80;46.00;;;;;;6282079;27;81659;-68
2022/05/23 02:19:12;;;;;;;2.08;1.50;;;23.80;46.00;;;;;;6282524;27;85978;-67
2022/05/23 02:22:18;;;;;;;1.40;1.23;;;23.70;46.10;;;;;;6282500;27;81771;-67
2022/05/23 02:25:18;;;;;;;2.65;1.55;;;23.70;45.80;;;;;;6276948;27;83144;-67
2022/05/23 02:28:19;;;;;;;2.30;1.83;;;23.80;45.70;;;;;;6272835;27;83578;-67
2022/05/23 02:31:20;;;;;;;1.98;1.55;;;23.70;45.60;;;;;;6262845;27;82556;-66
2022/05/23 02:34:28;;;;;;;2.40;1.52;;;23.70;45.80;;;;;;6281894;27;82261;-66
2022/05/23 02:37:30;;;;;;;2.10;1.50;;;23.80;45.90;;;;;;6282183;27;82792;-66
2022/05/23 02:40:32;;;;;;;2.30;1.60;;;23.80;45.90;;;;;;6278237;27;82863;-67
2022/05/23 02:43:33;;;;;;;2.85;1.27;;;23.70;45.90;;;;;;6281627;27;82664;-66
2022/05/23 02:46:34;;;;;;;2.97;1.60;;;23.70;45.90;;;;;;6281807;27;81640;-67
2022/05/23 02:49:42;;;;;;;2.05;1.63;;;23.80;45.90;;;;;;6278712;27;83568;-67
2022/05/23 02:52:48;;;;;;;;;;;23.70;45.70;;;;;;6281935;27;83102;-67
2022/05/23 02:55:54;;;;;;;5.10;2.07;;;23.70;45.80;;;;;;6284604;27;82447;-67
2022/05/23 02:58:54;;;;;;;2.63;1.50;;;23.70;45.90;;;;;;6282476;27;80322;-68
2022/05/23 03:05:17;;;;;;;2.38;1.52;;;23.70;46.00;;;;;;6281353;27;83148;-66
2022/05/23 03:08:20;;;;;;;1.98;1.50;;;23.70;46.20;;;;;;6275798;27;82664;-66
2022/05/23 03:11:21;;;;;;;3.28;1.67;;;23.70;46.10;;;;;;6283512;27;82249;-66
2022/05/23 03:14:21;;;;;;;3.90;1.58;;;23.70;46.20;;;;;;6285589;27;82361;-66
2022/05/23 03:17:24;;;;;;;2.05;1.42;;;23.70;46.20;;;;;;6278138;27;80327;-67
2022/05/23 03:20:25;;;;;;;2.80;2.00;;;23.70;46.20;;;;;;6286966;27;80755;-66
2022/05/23 03:27:00;;;;;;;3.15;1.85;;;23.70;46.20;;;;;;6267387;27;81952;-67
2022/05/23 03:30:07;;;;;;;2.13;1.70;;;23.70;46.20;;;;;;6285557;27;83125;-67
2022/05/23 03:33:17;;;;;;;2.75;1.80;;;23.70;46.20;;;;;;6282572;27;83110;-67
2022/05/23 03:36:18;;;;;;;3.63;1.60;;;23.70;46.10;;;;;;6274471;27;82554;-67
2022/05/23 03:39:19;;;;;;;1.88;1.67;;;23.70;46.10;;;;;;6278176;27;80383;-67
2022/05/23 03:42:19;;;;;;;5.40;2.00;;;23.70;46.10;;;;;;6285062;27;82816;-67
2022/05/23 03:45:22;;;;;;;2.30;1.50;;;23.70;46.10;;;;;;6281506;27;81497;-67
2022/05/23 03:48:22;;;;;;;2.50;1.90;;;23.70;46.00;;;;;;6281522;27;83649;-67
2022/05/23 03:51:24;;;;;;;3.40;1.80;;;23.70;46.00;;;;;;6284629;27;83234;-67
2022/05/23 03:54:26;;;;;;;3.17;1.83;;;23.70;45.90;;;;;;6286263;27;80230;-67
2022/05/23 03:57:27;;;;;;;10.35;2.22;;;23.70;45.90;;;;;;6261844;27;82892;-67
2022/05/23 04:00:27;;;;;;;2.88;1.60;;;23.70;45.80;;;;;;6281919;27;83202;-68
2022/05/23 04:03:30;;;;;;;3.40;2.05;;;23.70;46.00;;;;;;6284492;27;82311;-67
2022/05/23 04:06:30;;;;;;;4.22;1.88;;;23.70;45.90;;;;;;6285970;27;81318;-68
2022/05/23 04:09:38;;;;;;;2.33;1.90;;;23.70;45.80;;;;;;6280021;27;81768;-67
2022/05/23 04:12:39;;;;;;;3.75;1.90;;;23.70;45.90;;;;;;6282249;27;83196;-67
2022/05/23 04:15:41;;;;;;;2.42;1.50;;;23.70;45.90;;;;;;6281419;27;81566;-67
2022/05/23 04:18:42;;;;;;;2.03;1.63;;;23.70;46.00;;;;;;6279186;27;81524;-70
2022/05/23 04:21:43;;;;;;;2.10;1.50;;;23.70;46.80;;;;;;6272700;27;81668;-69
2022/05/23 04:24:44;;;;;;;3.22;1.67;;;23.70;46.20;;;;;;6264824;27;82065;-70
2022/05/23 04:27:45;;;;;;;4.03;1.80;;;23.70;46.10;;;;;;6263573;27;83334;-71
2022/05/23 04:30:45;;;;;;;8.75;2.20;;;23.70;46.20;;;;;;6270781;27;83327;-63
2022/05/23 04:37:09;;;;;;;3.63;1.92;;;23.70;46.40;;;;;;6272668;27;83992;-66
2022/05/23 04:40:16;;;;;;;9.98;4.03;;;23.70;46.40;;;;;;6276218;27;87387;-74
2022/05/23 04:43:16;;;;;;;8.27;4.35;;;23.70;46.70;;;;;;6276164;27;81118;-70
2022/05/23 04:46:17;;;;;;;10.02;3.80;;;23.80;46.90;;;;;;6284327;27;81408;-73
2022/05/23 04:49:50;;;;;;;12.90;3.38;;;23.80;47.30;;;;;;6275014;27;81282;-72
2022/05/23 04:53:16;;;;;;;4.55;2.95;;;23.80;47.00;;;;;;6284359;27;81454;-73
2022/05/23 04:56:31;;;;;;;7.57;2.88;;;23.80;47.20;;;;;;6269390;27;81340;-71
2022/05/23 04:59:39;;;;;;;10.38;2.85;;;23.90;47.20;;;;;;6284121;27;83013;-73
2022/05/23 05:02:46;;;;;;;7.38;2.92;;;23.90;47.20;;;;;;6265974;27;83523;-71
2022/05/23 05:05:47;;;;;;;7.57;2.80;;;23.90;47.20;;;;;;6284294;27;82952;-72
2022/05/23 05:08:47;;;;;;;6.25;2.55;;;23.80;47.40;;;;;;6283303;27;82474;-70
2022/05/23 05:11:48;;;;;;;4.95;2.53;;;23.90;47.40;;;;;;6285752;27;80150;-72
2022/05/23 05:14:58;;;;;;;3.95;2.58;;;23.90;47.30;;;;;;6276441;27;81514;-72
2022/05/23 05:17:59;;;;;;;7.70;2.45;;;23.90;47.30;;;;;;6264612;27;82694;-72
2022/05/23 05:21:02;;;;;;;7.10;2.45;;;23.90;47.30;;;;;;6270726;27;83286;-72
2022/05/23 05:24:22;;;;;;;5.20;2.38;;;23.90;47.30;;;;;;6270834;27;80501;-71
2022/05/23 05:28:01;;;;;;;5.22;2.53;;;23.90;47.40;;;;;;6278295;27;80723;-72
2022/05/23 05:31:01;;;;;;;10.27;2.85;;;23.90;47.60;;;;;;6278756;27;81697;-74
2022/05/23 05:34:02;;;;;;;5.75;2.55;;;23.90;47.60;;;;;;6271566;27;80272;-71
2022/05/23 05:37:05;;;;;;;5.72;2.20;;;23.90;47.70;;;;;;6279113;27;84264;-70
2022/05/23 05:40:09;;;;;;;4.35;2.25;;;24.00;47.50;;;;;;6249299;27;82495;-69
2022/05/23 05:43:13;;;;;;;5.63;2.80;;;24.00;47.40;;;;;;6263806;27;87187;-71
2022/05/23 05:46:15;;;;;;;3.72;2.40;;;24.00;47.60;;;;;;6260216;27;81570;-70
2022/05/23 05:49:35;;;;;;;4.43;2.53;;;24.00;47.70;;;;;;6264888;27;83105;-70
2022/05/23 05:52:44;;;;;;;11.38;4.15;;;24.00;47.50;;;;;;6260162;27;82975;-74
2022/05/23 05:55:45;;;;;;;4.75;2.60;;;24.00;47.40;;;;;;6275049;27;83497;-71
2022/05/23 05:58:46;;;;;;;3.90;2.60;;;24.00;47.50;;;;;;6274950;27;83526;-73
2022/05/23 06:01:48;;;;;;;4.18;2.60;;;24.00;48.10;;;;;;6256692;27;83105;-68
2022/05/23 06:04:51;;;;;;;7.47;2.58;;;24.00;47.50;;;;;;6271817;27;83204;-72
2022/05/23 06:11:29;;;;;;;4.00;2.45;;;24.00;48.00;;;;;;6266877;27;83634;-72
2022/05/23 06:14:38;;;;;;;7.75;2.63;;;24.00;48.20;;;;;;6263175;27;80531;-70
2022/05/23 06:17:42;;;;;;;4.32;2.42;;;24.00;48.10;;;;;;6271707;27;82850;-64
2022/05/23 06:20:42;;;;;;;5.63;2.42;;;23.90;48.50;;;;;;6273643;27;81927;-67
2022/05/23 06:23:46;;;;;;;6.40;3.08;;;24.00;48.50;;;;;;6272809;27;83574;-68
2022/05/23 06:27:07;;;;;;;6.25;2.78;;;24.00;48.40;;;;;;6282749;27;80398;-69
2022/05/23 06:30:25;;;;;;;7.15;2.95;;;24.00;48.60;;;;;;6280848;27;83144;-69
2022/05/23 06:33:38;;;;;;;9.85;2.80;;;24.10;48.40;;;;;;6281369;27;81525;-69
2022/05/23 06:36:45;;;;;;;8.70;2.45;;;24.10;48.30;;;;;;6280968;27;82777;-69
2022/05/23 06:39:46;;;;;;;7.38;3.85;;;24.10;48.30;;;;;;6281036;27;87625;-69
2022/05/23 06:43:07;;;;;;;6.82;2.78;;;24.10;48.30;;;;;;6275747;27;81850;-67
2022/05/23 06:46:39;;;;;;;13.25;3.50;;;24.10;48.30;;;;;;6278015;27;83535;-70
2022/05/23 06:50:03;;;;;;;7.43;2.97;;;24.10;48.20;;;;;;6271047;27;80705;-68
2022/05/23 06:53:32;;;;;;;4.55;2.83;;;24.10;48.30;;;;;;6272598;27;81019;-68
2022/05/23 06:56:42;;;;;;;8.73;2.92;;;24.10;48.20;;;;;;6263765;27;83067;-67
2022/05/23 06:59:44;;;;;;;10.82;3.10;;;24.10;48.30;;;;;;6267887;27;82507;-76
2022/05/23 07:02:45;;;;;;;8.63;2.83;;;24.10;48.30;;;;;;6267540;27;82064;-75
2022/05/23 07:12:27;;;;;;;10.38;2.45;;;24.10;47.90;;;;;;6281086;27;83435;-67
2022/05/23 07:15:36;;;;;;;6.00;2.53;;;24.10;47.90;;;;;;6278058;27;83336;-68
2022/05/23 07:18:41;;;;;;;9.55;3.00;;;24.10;47.90;;;;;;6276105;27;83198;-69
2022/05/23 07:21:50;;;;;;;5.93;2.60;;;24.10;47.90;;;;;;6262633;27;82958;-74
2022/05/23 07:24:53;;;;;;;6.43;2.47;;;24.10;47.80;;;;;;6269914;27;83023;-73
2022/05/23 07:27:56;;;;;;;4.22;2.28;;;24.10;47.60;;;;;;6279481;27;83774;-74
2022/05/23 07:30:57;;;;;;;8.77;3.03;;;24.10;47.50;;;;;;6275344;27;83221;-74
2022/05/23 07:33:57;;;;;;;11.98;2.72;;;24.10;47.40;;;;;;6271170;27;82212;-72
2022/05/23 07:36:59;;;;;;;73.40;27.65;;;24.10;47.50;;;;;;6280879;27;82991;-71
2022/05/23 07:40:01;;;;;;;216.10;89.50;;;24.20;47.60;;;;;;6277533;27;83640;-73
2022/05/23 07:43:09;;;;;;;154.95;66.65;;;24.10;47.30;;;;;;6277637;27;86043;-70
2022/05/23 07:46:12;;;;;;;149.73;59.72;;;24.20;47.20;;;;;;6277835;27;85781;-75
2022/05/23 07:49:14;;;;;;;250.48;107.80;;;24.10;46.40;;;;;;6277648;27;84345;-75
2022/05/23 07:52:27;;;;;;;340.58;142.55;;;24.20;45.40;;;;;;6274704;27;85611;-71
2022/05/23 08:02:06;;;;;;;147.40;55.35;;;24.20;44.20;;;;;;6272361;27;86315;-71
2022/05/23 08:05:08;;;;;;;131.70;50.85;;;24.20;44.50;;;;;;6280259;27;84247;-68
2022/05/23 08:08:15;;;;;;;106.35;44.70;;;24.30;44.30;;;;;;6268516;27;86059;-70
2022/05/23 08:11:17;;;;;;;101.47;41.38;;;24.20;44.60;;;;;;6281927;27;85299;-75
2022/05/23 08:14:36;;;;;;;83.20;33.85;;;24.20;44.80;;;;;;6268852;27;85626;-71
2022/05/23 08:17:43;;;;;;;67.97;28.77;;;24.20;44.70;;;;;;6267020;27;85582;-71
2022/05/23 08:21:05;;;;;;;66.00;26.38;;;24.20;44.70;;;;;;6271509;27;84964;-72
2022/05/23 08:24:13;;;;;;;50.30;21.27;;;24.20;44.70;;;;;;6270176;27;86313;-74
2022/05/23 08:27:13;;;;;;;47.47;19.83;;;24.20;44.70;;;;;;6274186;27;85990;-74
2022/05/23 08:30:19;;;;;;;49.65;21.45;;;24.20;44.80;;;;;;6277141;27;85593;-69
2022/05/23 08:33:20;;;;;;;45.50;19.35;;;24.20;44.80;;;;;;6272755;27;85489;-70
2022/05/23 08:36:21;;;;;;;42.20;17.48;;;24.30;44.90;;;;;;6268814;27;85387;-71
2022/05/23 08:39:22;;;;;;;40.53;15.85;;;24.30;44.90;;;;;;6281265;27;85688;-73
2022/05/23 08:42:32;;;;;;;38.33;16.08;;;24.30;45.00;;;;;;6281068;27;85926;-76
2022/05/23 08:45:48;;;;;;;27.80;12.75;;;24.30;45.10;;;;;;6267912;27;86070;-72
2022/05/23 08:48:49;;;;;;;27.50;12.00;;;24.30;44.90;;;;;;6260925;27;85175;-75
2022/05/23 08:51:59;;;;;;;28.23;12.05;;;24.30;44.90;;;;;;6279178;27;85132;-73
2022/05/23 08:55:04;;;;;;;26.45;11.13;;;24.30;45.20;;;;;;6279637;27;85675;-72
2022/05/23 08:58:07;;;;;;;21.27;9.63;;;24.40;44.90;;;;;;6279511;27;82965;-70
2022/05/23 09:01:08;;;;;;;15.55;8.23;;;24.40;45.50;;;;;;6272197;27;85951;-72
2022/05/23 09:04:11;;;;;;;22.42;8.00;;;24.30;44.50;;;;;;6283973;27;80580;-68
2022/05/23 09:07:11;;;;;;;28.58;7.13;;;24.30;44.40;;;;;;6285733;27;81479;-68
2022/05/23 09:10:12;;;;;;;20.55;7.00;;;24.30;44.70;;;;;;6275132;27;81049;-72
2022/05/23 09:13:12;;;;;;;14.48;6.75;;;24.30;44.50;;;;;;6279838;27;81168;-72
2022/05/23 09:16:13;;;;;;;14.13;6.43;;;24.30;44.40;;;;;;6278908;27;80297;-72
2022/05/23 09:19:13;;;;;;;16.70;5.38;;;24.30;44.40;;;;;;6284749;27;81643;-73
2022/05/23 09:22:14;;;;;;;10.25;5.28;;;24.30;44.10;;;;;;6283631;27;81429;-72
2022/05/23 09:25:14;;;;;;;12.35;5.45;;;24.30;44.10;;;;;;6279837;27;80886;-72
2022/05/23 09:28:15;;;;;;;12.15;4.38;;;24.30;44.10;;;;;;6284569;27;80334;-73
2022/05/23 09:31:15;;;;;;;8.68;3.72;;;24.30;44.00;;;;;;6284585;27;80235;-73
2022/05/23 09:34:16;;;;;;;8.35;4.25;;;24.30;43.90;;;;;;6285212;27;80678;-73
2022/05/23 09:37:16;;;;;;;8.40;4.53;;;24.30;44.00;;;;;;6285310;27;81428;-72
2022/05/23 09:40:17;;;;;;;9.25;4.05;;;24.20;43.70;;;;;;6274811;27;80688;-72
2022/05/23 09:49:56;;;;;;;5.55;2.97;;;24.30;43.70;;;;;;6284116;27;80924;-72
2022/05/23 09:52:57;;;;;;;6.53;3.17;;;24.20;44.00;;;;;;6284182;27;80174;-72
2022/05/23 09:55:58;;;;;;;8.57;3.08;;;24.20;43.60;;;;;;6282583;27;82109;-73
2022/05/23 09:58:59;;;;;;;6.13;3.05;;;24.20;43.70;;;;;;6284196;27;80697;-73
2022/05/23 10:01:59;;;;;;;4.97;2.72;;;24.20;43.70;;;;;;6283129;27;80567;-72
2022/05/23 10:05:03;;;;;;;7.07;3.05;;;24.20;43.70;;;;;;6284365;27;81405;-73
2022/05/23 10:08:03;;;;;;;4.50;2.50;;;24.20;43.60;;;;;;6284314;27;80205;-72
2022/05/23 10:11:04;;;;;;;5.18;2.92;;;24.20;43.40;;;;;;6284304;27;80651;-73
2022/05/23 10:14:07;;;;;;;7.63;2.47;;;24.20;43.30;;;;;;6277406;27;80628;-71
2022/05/23 10:17:08;;;;;;;3.95;2.30;;;24.20;43.70;;;;;;6274131;27;80162;-72
2022/05/23 10:20:09;;;;;;;8.55;2.50;;;24.20;43.60;;;;;;6269656;27;80516;-72
2022/05/23 10:23:09;;;;;;;5.35;2.42;;;24.20;43.60;;;;;;6282181;27;81646;-72
2022/05/23 10:26:10;;;;;;;5.15;2.45;;;24.10;43.60;;;;;;6282443;27;82848;-72
2022/05/23 10:29:11;;;;;;;5.53;1.80;;;24.10;43.40;;;;;;6283609;27;80562;-72
2022/05/23 10:32:11;;;;;;;5.20;2.50;;;24.10;43.30;;;;;;6283860;27;80485;-72
2022/05/23 10:35:12;;;;;;;3.78;2.30;;;24.10;43.20;;;;;;6283611;27;81495;-72
2022/05/23 10:44:51;;;;;;;2.88;2.10;;;24.10;43.20;;;;;;6283319;27;82413;-73
2022/05/23 10:47:51;;;;;;;9.65;2.00;;;24.10;42.90;;;;;;6283806;27;80437;-73
2022/05/23 10:50:52;;;;;;;7.25;2.20;;;24.10;43.10;;;;;;6275827;27;80404;-70
2022/05/23 10:53:52;;;;;;;1.77;1.40;;;24.00;42.80;;;;;;6274278;27;80440;-72
2022/05/23 10:56:53;;;;;;;8.07;2.10;;;24.10;43.00;;;;;;6283158;27;80378;-72
2022/05/23 10:59:54;;;;;;;4.03;1.92;;;24.10;43.00;;;;;;6283426;27;80969;-72
2022/05/23 11:02:54;;;;;;;11.00;2.50;;;24.10;43.00;;;;;;6283017;27;81423;-70
2022/05/23 11:05:55;;;;;;;11.65;2.95;;;24.10;43.80;;;;;;6282672;27;81352;-68
2022/05/23 11:08:56;;;;;;;3.88;1.90;;;24.10;44.00;;;;;;6283111;27;80809;-70
2022/05/23 11:11:56;;;;;;;17.90;2.60;;;24.10;43.80;;;;;;6277375;27;80942;-68
2022/05/23 11:14:57;;;;;;;10.02;2.35;;;24.10;44.00;;;;;;6270305;27;80412;-66
2022/05/23 11:17:58;;;;;;;5.78;2.47;;;24.10;44.50;;;;;;6277246;27;80207;-73
2022/05/23 11:20:59;;;;;;;8.10;2.90;;;24.20;44.80;;;;;;6280176;27;80609;-70
2022/05/23 11:23:59;;;;;;;16.92;3.53;;;24.20;44.50;;;;;;6275708;27;81728;-73
2022/05/23 11:33:41;;;;;;;14.45;4.43;;;24.20;45.50;;;;;;6282736;27;80907;-73
2022/05/23 11:33:46;;;;;;;9.35;3.17;;;24.20;47.10;;;;;;6267905;27;80498;-72
2022/05/23 11:36:57;;;;;;;10.27;3.05;;;24.20;47.30;;;;;;6267613;27;80526;-71
2022/05/23 11:39:57;;;;;;;5.72;2.28;;;24.30;47.50;;;;;;6268038;27;80458;-72
2022/05/23 11:43:05;;;;;;;6.50;2.50;;;24.30;45.50;;;;;;6279019;27;82287;-77
2022/05/23 11:46:05;;;;;;;5.05;2.10;;;24.30;44.80;;;;;;6274672;27;80189;-73
2022/05/23 11:49:11;;;;;;;2.92;2.05;;;24.30;45.00;;;;;;6268299;27;80857;-76
2022/05/23 11:52:12;;;;;;;9.20;3.03;;;24.30;44.90;;;;;;6268626;27;81368;-71
2022/05/23 11:55:12;;;;;;;9.05;2.80;;;24.30;45.90;;;;;;6278087;27;80589;-73
2022/05/23 11:58:13;;;;;;;9.23;2.08;;;24.30;44.60;;;;;;6280443;27;81958;-72
2022/05/23 12:01:17;;;;;;;8.00;2.08;;;24.30;44.80;;;;;;6286067;27;80776;-72
2022/05/23 12:04:17;;;;;;;4.28;1.83;;;24.40;45.10;;;;;;6285871;27;81699;-73
2022/05/23 12:07:21;;;;;;;7.68;2.05;;;24.40;44.50;;;;;;6267581;27;81335;-72
2022/05/23 12:10:22;;;;;;;7.20;2.47;;;24.40;44.40;;;;;;6283105;27;80399;-72
2022/05/23 12:13:22;;;;;;;8.00;2.35;;;24.40;44.00;;;;;;6276555;27;80829;-75
2022/05/23 12:16:27;;;;;;;3.95;1.90;;;24.40;43.50;;;;;;6272258;27;81475;-70
2022/05/23 12:19:27;;;;;;;4.10;2.00;;;24.30;43.20;;;;;;6270811;27;81835;-69
2022/05/23 12:22:28;;;;;;;4.28;1.85;;;24.30;43.50;;;;;;6270183;27;80389;-68
2022/05/23 12:25:29;;;;;;;5.45;2.08;;;24.30;44.20;;;;;;6285340;27;81859;-67
2022/05/23 12:28:29;;;;;;;5.53;2.15;;;24.40;44.20;;;;;;6272231;27;82579;-73
2022/05/23 12:31:30;;;;;;;3.20;1.88;;;24.40;44.70;;;;;;6275572;27;80409;-71
2022/05/23 12:34:30;;;;;;;4.18;1.88;;;24.50;44.40;;;;;;6282416;27;80684;-71
2022/05/23 12:37:31;;;;;;;6.20;1.80;;;24.50;44.90;;;;;;6285166;27;81524;-71
2022/05/23 12:40:31;;;;;;;7.63;2.10;;;24.50;45.00;;;;;;6277279;27;80269;-70
2022/05/23 12:43:32;;;;;;;4.93;1.80;;;24.60;45.00;;;;;;6285639;27;80436;-71
2022/05/23 12:46:35;;;;;;;4.03;1.67;;;24.60;44.60;;;;;;6283398;27;81985;-70
2022/05/23 12:49:35;;;;;;;2.47;1.45;;;24.50;43.90;;;;;;6285229;27;81614;-71
2022/05/23 12:52:36;;;;;;;2.78;1.65;;;24.50;44.10;;;;;;6278076;27;81835;-71
2022/05/23 12:55:39;;;;;;;10.93;1.70;;;24.60;44.10;;;;;;6280597;27;80371;-71
2022/05/23 12:58:40;;;;;;;2.95;1.80;;;24.60;44.10;;;;;;6285789;27;81464;-70
2022/05/23 13:01:40;;;;;;;2.00;1.40;;;24.60;44.00;;;;;;6284982;27;80686;-70
2022/05/23 13:04:41;;;;;;;2.05;1.70;;;24.60;43.80;;;;;;6274388;27;80561;-71
2022/05/23 13:07:41;;;;;;;5.63;1.80;;;24.60;44.00;;;;;;6267989;27;80731;-71
2022/05/23 13:10:42;;;;;;;4.13;1.58;;;24.60;43.90;;;;;;6266649;27;80606;-71
2022/05/23 13:13:42;;;;;;;2.35;1.67;;;24.60;44.50;;;;;;6265692;27;81442;-71
2022/05/23 13:16:43;;;;;;;1.33;1.23;;;24.60;43.60;;;;;;6268323;27;82649;-71
2022/05/23 13:23:03;;;;;;;5.10;1.70;;;24.60;43.70;;;;;;6271043;27;80741;-71
2022/05/23 13:26:07;;;;;;;6.13;1.75;;;24.60;43.50;;;;;;6278869;27;80202;-70
2022/05/23 13:29:07;;;;;;;3.47;1.35;;;24.60;43.40;;;;;;6271840;27;80370;-73
2022/05/23 13:32:08;;;;;;;2.72;1.73;;;24.60;43.40;;;;;;6268786;27;81566;-71
2022/05/23 13:35:08;;;;;;;5.25;1.63;;;24.60;43.00;;;;;;6272301;27;80302;-70
2022/05/23 13:38:09;;;;;;;3.53;1.58;;;24.60;42.90;;;;;;6279445;27;80907;-72
2022/05/23 13:41:09;;;;;;;3.38;1.83;;;24.60;43.10;;;;;;6279907;27;80365;-69
2022/05/23 13:44:10;;;;;;;172.73;10.30;;;24.60;43.30;;;;;;6275197;27;80580;-74
2022/05/23 13:47:10;;;;;;;12.48;2.38;;;24.40;45.30;;;;;;6271943;27;83236;-73
2022/05/23 13:50:11;;;;;;;6.57;2.33;;;24.30;46.20;;;;;;6270087;27;82942;-77
2022/05/23 13:53:11;;;;;;;7.90;2.08;;;24.10;46.00;;;;;;6276301;27;80843;-76
2022/05/23 13:56:13;;;;;;;3.17;1.33;;;24.00;45.70;;;;;;6283456;27;80912;-74
2022/05/23 13:59:14;;;;;;;3.08;2.03;;;24.00;46.00;;;;;;6278172;27;80571;-76
2022/05/23 14:02:15;;;;;;;2.05;1.70;;;24.00;45.90;;;;;;6282462;27;80909;-77
2022/05/23 14:05:15;;;;;;;2.38;1.52;;;23.90;45.10;;;;;;6281746;27;80470;-75
2022/05/23 14:08:16;;;;;;;8.85;2.10;;;23.90;45.10;;;;;;6276072;27;80615;-75
2022/05/23 14:11:16;;;;;;;6.18;1.77;;;23.90;45.20;;;;;;6269343;27;80825;-72
2022/05/23 14:14:17;;;;;;;3.47;1.20;;;23.80;43.70;;;;;;6281883;27;80563;-70
2022/05/23 14:17:17;;;;;;;8.32;1.60;;;23.70;44.10;;;;;;6279170;27;80962;-72
2022/05/23 14:20:18;;;;;;;6.15;1.85;;;23.70;44.70;;;;;;6281909;27;80788;-77
2022/05/23 14:23:18;;;;;;;11.40;2.67;;;23.80;45.00;;;;;;6283999;27;80298;-76
2022/05/23 14:26:19;;;;;;;16.10;2.70;;;23.80;43.90;;;;;;6282039;27;80744;-66
2022/05/23 14:29:19;;;;;;;7.60;2.00;;;23.60;42.70;;;;;;6281647;27;81496;-64
2022/05/23 14:32:20;;;;;;;23.30;8.70;;;23.50;44.00;;;;;;6281702;27;80345;-65
2022/05/23 14:35:20;;;;;;;96.85;40.50;;;23.60;44.30;;;;;;6282972;27;80279;-64
2022/05/23 14:38:21;;;;;;;185.25;81.82;;;23.70;44.50;;;;;;6272750;27;83249;-63
2022/05/23 14:41:23;;;;;;;176.18;77.45;;;23.80;44.60;;;;;;6263419;27;83160;-65
2022/05/23 14:44:24;;;;;;;237.85;101.78;;;23.90;44.90;;;;;;6278939;27;83481;-65
2022/05/23 14:47:26;;;;;;;294.30;123.85;;;23.90;44.80;;;;;;6267383;27;85824;-63
2022/05/23 14:50:26;;;;;;;391.90;159.88;;;24.00;44.90;;;;;;6276511;27;86358;-65
2022/05/23 14:56:46;;;;;;;250.20;104.90;;;24.00;45.90;;;;;;6263569;27;86583;-63
2022/05/23 15:03:06;;;;;;;180.55;73.65;;;24.00;45.40;;;;;;6266523;27;87826;-65
2022/05/23 15:06:06;;;;;;;145.80;59.53;;;24.00;44.90;;;;;;6279752;27;83021;-65
2022/05/23 15:09:07;;;;;;;150.50;58.63;;;24.10;43.70;;;;;;6274524;27;86226;-65
2022/05/23 15:12:07;;;;;;;128.07;53.00;;;24.10;43.40;;;;;;6279838;27;82944;-64
2022/05/23 15:15:08;;;;;;;101.57;41.47;;;24.10;43.30;;;;;;6279461;27;82968;-64
2022/05/23 15:18:08;;;;;;;85.40;36.65;;;24.10;43.10;;;;;;6257787;27;83851;-64
2022/05/23 15:21:10;;;;;;;90.82;34.35;;;24.00;43.00;;;;;;6276876;27;83143;-64
2022/05/23 15:24:11;;;;;;;71.95;29.30;;;24.00;42.70;;;;;;6279567;27;83658;-64
2022/05/23 15:27:11;;;;;;;68.90;28.75;;;24.10;42.70;;;;;;6279360;27;83457;-64
2022/05/23 15:30:13;;;;;;;59.28;24.55;;;24.10;42.60;;;;;;6280263;27;83811;-64
2022/05/23 15:33:14;;;;;;;52.78;21.05;;;24.00;42.70;;;;;;6279814;27;83136;-64
2022/05/23 15:36:14;;;;;;;46.72;19.10;;;24.00;43.80;;;;;;6279469;27;83262;-64
2022/05/23 15:39:15;;;;;;;43.67;17.20;;;24.00;42.80;;;;;;6279207;27;83095;-64
2022/05/23 15:42:15;;;;;;;34.85;14.75;;;24.00;42.80;;;;;;6278598;27;83137;-63
2022/05/23 15:45:16;;;;;;;36.25;14.95;;;24.00;42.40;;;;;;6278079;27;83353;-64
2022/05/23 15:48:17;;;;;;;23.45;11.07;;;24.00;42.70;;;;;;6279332;27;82942;-63
2022/05/23 15:51:18;;;;;;;24.95;9.30;;;23.90;43.40;;;;;;6276480;27;82940;-67
2022/05/23 15:54:22;;;;;;;15.98;7.75;;;23.80;43.30;;;;;;6277397;27;83040;-65
2022/05/23 15:57:22;;;;;;;16.42;6.50;;;23.70;43.40;;;;;;6274173;27;80451;-64
2022/05/23 16:00:23;;;;;;;9.43;4.20;;;23.70;45.10;;;;;;6276125;27;82036;-65
2022/05/23 16:03:26;;;;;;;7.22;3.75;;;23.70;43.20;;;;;;6281597;27;80476;-65
2022/05/23 16:06:26;;;;;;;4.80;2.97;;;23.60;43.30;;;;;;6281333;27;80829;-66
2022/05/23 16:09:27;;;;;;;9.48;3.13;;;23.50;43.30;;;;;;6282508;27;80312;-66
2022/05/23 16:12:27;;;;;;;15.30;2.78;;;23.30;43.40;;;;;;6282564;27;80863;-65
2022/05/23 16:15:28;;;;;;;3.83;2.30;;;23.40;43.90;;;;;;6281834;27;81160;-63
2022/05/23 16:18:28;;;;;;;9.50;1.98;;;23.50;44.10;;;;;;6282347;27;80558;-64
2022/05/23 16:21:32;;;;;;;2.13;1.70;;;23.40;43.80;;;;;;6282251;27;80798;-65
2022/05/23 16:24:33;;;;;;;4.32;2.03;;;23.40;44.10;;;;;;6286333;27;80109;-64
2022/05/23 16:27:33;;;;;;;2.65;1.65;;;23.50;43.90;;;;;;6285926;27;81923;-63
2022/05/23 16:30:34;;;;;;;2.92;1.70;;;23.50;43.10;;;;;;6286138;27;80606;-64
2022/05/23 16:36:54;;;;;;;1.80;1.60;;;22.80;44.00;;;;;;6285969;27;80572;-65
2022/05/23 16:39:54;;;;;;;6.43;2.25;;;22.70;44.60;;;;;;6286314;27;80600;-64
2022/05/23 16:42:57;;;;;;;4.25;2.47;;;22.40;44.70;;;;;;6285814;27;80344;-65
2022/05/23 16:45:58;;;;;;;4.38;2.03;;;22.20;45.30;;;;;;6270622;27;81136;-63
2022/05/23 16:48:59;;;;;;;3.22;1.70;;;21.90;45.40;;;;;;6266456;27;80977;-63
2022/05/23 16:51:59;;;;;;;3.38;1.92;;;21.70;45.90;;;;;;6274660;27;80335;-63